createdAt,value
2023-01-17T00:00:52.691Z,93.89
2023-01-17T00:01:52.677Z,93.9
2023-01-17T00:02:52.690Z,93.89
2023-01-17T00:03:52.690Z,93.9
2023-01-17T00:04:52.689Z,93.89
2023-01-17T00:05:52.677Z,93.89
2023-01-17T00:06:52.691Z,93.9
2023-01-17T00:07:52.755Z,93.9
2023-01-17T00:08:52.691Z,93.9
2023-01-17T00:09:52.678Z,93.9
2023-01-17T00:10:52.691Z,93.9
2023-01-17T00:11:52.691Z,93.9
2023-01-17T00:12:52.691Z,93.9
2023-01-17T00:13:52.678Z,93.91
2023-01-17T00:14:52.692Z,93.91
2023-01-17T00:15:52.692Z,93.91
2023-01-17T00:16:52.678Z,93.91
2023-01-17T00:17:52.679Z,93.91
2023-01-17T00:18:52.692Z,93.93
2023-01-17T00:19:52.733Z,93.93
2023-01-17T00:20:52.677Z,93.93
2023-01-17T00:21:52.692Z,93.94
2023-01-17T00:22:52.693Z,93.94
2023-01-17T00:23:52.692Z,93.95
2023-01-17T00:24:52.679Z,93.95
2023-01-17T00:25:52.693Z,93.94
2023-01-17T00:26:52.694Z,93.94
2023-01-17T00:27:52.692Z,93.95
2023-01-17T00:28:52.680Z,93.94
2023-01-17T00:29:52.693Z,93.94
2023-01-17T00:30:52.694Z,93.94
2023-01-17T00:31:52.680Z,93.95
2023-01-17T00:32:52.680Z,93.95
2023-01-17T00:33:52.694Z,93.94
2023-01-17T00:34:52.695Z,93.95
2023-01-17T00:35:52.679Z,93.95
2023-01-17T00:36:52.742Z,93.95
2023-01-17T00:37:52.694Z,93.96
2023-01-17T00:38:52.693Z,93.95
2023-01-17T00:39:52.681Z,93.95
2023-01-17T00:40:52.694Z,93.96
2023-01-17T00:41:52.760Z,93.96
2023-01-17T00:42:52.694Z,93.97
2023-01-17T00:43:52.682Z,93.97
2023-01-17T00:44:52.695Z,93.97
2023-01-17T00:45:52.696Z,93.97
2023-01-17T00:46:52.694Z,93.97
2023-01-17T00:47:52.682Z,93.97
2023-01-17T00:48:52.758Z,93.98
2023-01-17T00:49:52.695Z,93.98
2023-01-17T00:50:52.682Z,93.98
2023-01-17T00:51:52.683Z,93.98
2023-01-17T00:52:52.696Z,93.98
2023-01-17T00:53:52.696Z,93.98
2023-01-17T00:54:52.682Z,93.98
2023-01-17T00:55:52.696Z,93.98
2023-01-17T00:56:52.696Z,93.97
2023-01-17T00:57:52.695Z,93.97
2023-01-17T00:58:52.683Z,93.97
2023-01-17T00:59:52.695Z,93.97
2023-01-17T01:00:52.739Z,93.97
2023-01-17T01:01:52.695Z,93.98
2023-01-17T01:02:52.684Z,93.98
2023-01-17T01:03:52.697Z,93.98
2023-01-17T01:04:52.697Z,93.98
2023-01-17T01:05:52.696Z,93.98
2023-01-17T01:06:52.684Z,93.99
2023-01-17T01:07:52.697Z,93.99
2023-01-17T01:08:52.697Z,94
2023-01-17T01:09:52.684Z,93.99
2023-01-17T01:10:52.685Z,94
2023-01-17T01:11:52.698Z,93.99
2023-01-17T01:12:52.738Z,93.99
2023-01-17T01:13:52.684Z,94.01
2023-01-17T01:14:52.698Z,94.01
2023-01-17T01:15:52.698Z,94
2023-01-17T01:16:52.697Z,94
2023-01-17T01:17:52.697Z,94.01
2023-01-17T01:18:52.698Z,94.01
2023-01-17T01:19:52.699Z,94.01
2023-01-17T01:20:52.698Z,94.01
2023-01-17T01:21:52.685Z,94.02
2023-01-17T01:22:52.699Z,94
2023-01-17T01:23:52.699Z,94.01
2023-01-17T01:24:52.685Z,94.01
2023-01-17T01:25:52.686Z,94
2023-01-17T01:26:52.698Z,94.01
2023-01-17T01:27:52.699Z,94.01
2023-01-17T01:28:52.686Z,94.01
2023-01-17T01:29:52.740Z,94.01
2023-01-17T01:30:52.698Z,94.01
2023-01-17T01:31:52.698Z,94.01
2023-01-17T01:32:52.686Z,94.01
2023-01-17T01:33:52.699Z,94.02
2023-01-17T01:34:52.699Z,94.02
2023-01-17T01:35:52.699Z,94.02
2023-01-17T01:36:52.685Z,94.02
2023-01-17T01:37:52.700Z,94.02
2023-01-17T01:38:52.700Z,94.02
2023-01-17T01:39:52.700Z,94.02
2023-01-17T01:40:52.688Z,94.02
2023-01-17T01:41:52.700Z,94.02
2023-01-17T01:42:52.701Z,94.03
2023-01-17T01:43:52.687Z,94.03
2023-01-17T01:44:52.688Z,94.03
2023-01-17T01:45:52.701Z,94.03
2023-01-17T01:46:52.701Z,94.03
2023-01-17T01:47:52.686Z,94.03
2023-01-17T01:48:52.701Z,94.04
2023-01-17T01:49:52.701Z,94.04
2023-01-17T01:50:52.700Z,94.04
2023-01-17T01:51:52.688Z,94.04
2023-01-17T01:52:52.701Z,94.05
2023-01-17T01:53:52.701Z,94.05
2023-01-17T01:54:52.701Z,94.05
2023-01-17T01:55:52.689Z,94.05
2023-01-17T01:56:52.702Z,94.05
2023-01-17T01:57:52.702Z,94.05
2023-01-17T01:58:52.689Z,94.06
2023-01-17T01:59:52.689Z,94.05
2023-01-17T02:00:52.701Z,94.05
2023-01-17T02:01:52.701Z,94.05
2023-01-17T02:02:52.689Z,94.05
2023-01-17T02:03:52.690Z,94.05
2023-01-17T02:04:52.703Z,94.05
2023-01-17T02:05:52.702Z,94.05
2023-01-17T02:06:52.690Z,94.05
2023-01-17T02:07:52.703Z,94.05
2023-01-17T02:08:52.702Z,94.05
2023-01-17T02:09:52.702Z,94.06
2023-01-17T02:10:52.690Z,94.05
2023-01-17T02:11:52.702Z,94.06
2023-01-17T02:12:52.703Z,94.05
2023-01-17T02:13:52.704Z,94.05
2023-01-17T02:14:52.691Z,94.05
2023-01-17T02:15:52.704Z,94.04
2023-01-17T02:16:52.704Z,94.05
2023-01-17T02:17:52.689Z,94.05
2023-01-17T02:18:52.691Z,94.04
2023-01-17T02:19:52.704Z,94.05
2023-01-17T02:20:52.705Z,94.05
2023-01-17T02:21:52.691Z,94.05
2023-01-17T02:22:52.704Z,94.05
2023-01-17T02:23:52.705Z,94.05
2023-01-17T02:24:52.704Z,94.05
2023-01-17T02:25:52.690Z,94.05
2023-01-17T02:26:52.705Z,94.05
2023-01-17T02:27:52.705Z,94.05
2023-01-17T02:28:52.704Z,94.05
2023-01-17T02:29:52.691Z,94.05
2023-01-17T02:30:52.705Z,94.05
2023-01-17T02:31:52.705Z,94.05
2023-01-17T02:32:52.704Z,94.06
2023-01-17T02:33:52.693Z,94.06
2023-01-17T02:34:52.729Z,94.05
2023-01-17T02:35:52.707Z,94.05
2023-01-17T02:36:52.692Z,94.05
2023-01-17T02:37:52.693Z,94.04
2023-01-17T02:38:52.706Z,94.05
2023-01-17T02:39:52.707Z,94.04
2023-01-17T02:40:52.693Z,94.05
2023-01-17T02:41:52.705Z,94.04
2023-01-17T02:42:52.706Z,94.05
2023-01-17T02:43:52.705Z,94.05
2023-01-17T02:44:52.693Z,94.05
2023-01-17T02:45:52.707Z,94.05
2023-01-17T02:46:52.710Z,94.05
2023-01-17T02:47:52.707Z,94.05
2023-01-17T02:48:52.694Z,94.05
2023-01-17T02:49:52.707Z,94.05
2023-01-17T02:50:52.708Z,94.05
2023-01-17T02:51:52.706Z,94.05
2023-01-17T02:52:52.694Z,94.05
2023-01-17T02:53:52.707Z,94.05
2023-01-17T02:54:52.707Z,94.05
2023-01-17T02:55:52.694Z,94.04
2023-01-17T02:56:52.695Z,94.05
2023-01-17T02:57:52.707Z,94.05
2023-01-17T02:58:52.707Z,94.05
2023-01-17T02:59:52.694Z,94.05
2023-01-17T03:00:52.708Z,94.05
2023-01-17T03:01:52.707Z,94.05
2023-01-17T03:02:52.707Z,94.06
2023-01-17T03:03:52.695Z,94.06
2023-01-17T03:04:52.708Z,94.06
2023-01-17T03:05:52.708Z,94.06
2023-01-17T03:06:52.708Z,94.06
2023-01-17T03:07:52.696Z,94.06
2023-01-17T03:08:52.708Z,94.06
2023-01-17T03:09:52.709Z,94.05
2023-01-17T03:10:52.695Z,94.05
2023-01-17T03:11:52.696Z,94.04
2023-01-17T03:12:52.709Z,94.05
2023-01-17T03:13:52.710Z,94.04
2023-01-17T03:14:52.696Z,94.04
2023-01-17T03:15:52.749Z,94.04
2023-01-17T03:16:52.709Z,94.04
2023-01-17T03:17:52.708Z,94.05
2023-01-17T03:18:52.694Z,94.04
2023-01-17T03:19:52.710Z,94.05
2023-01-17T03:20:52.709Z,94.06
2023-01-17T03:21:52.710Z,94.06
2023-01-17T03:22:52.696Z,94.06
2023-01-17T03:23:52.710Z,94.07
2023-01-17T03:24:52.710Z,94.07
2023-01-17T03:25:52.710Z,94.07
2023-01-17T03:26:52.697Z,94.07
2023-01-17T03:27:52.709Z,94.07
2023-01-17T03:28:52.710Z,94.06
2023-01-17T03:29:52.697Z,94.06
2023-01-17T03:30:52.698Z,94.06
2023-01-17T03:31:52.711Z,94.06
2023-01-17T03:32:52.711Z,94.06
2023-01-17T03:33:52.698Z,94.06
2023-01-17T03:34:52.711Z,94.06
2023-01-17T03:35:52.711Z,94.06
2023-01-17T03:36:52.710Z,94.07
2023-01-17T03:37:52.698Z,94.07
2023-01-17T03:38:52.711Z,94.07
2023-01-17T03:39:52.711Z,94.07
2023-01-17T03:40:52.711Z,94.06
2023-01-17T03:41:52.699Z,94.07
2023-01-17T03:42:52.711Z,94.07
2023-01-17T03:43:52.713Z,94.07
2023-01-17T03:44:52.698Z,94.07
2023-01-17T03:45:52.699Z,94.07
2023-01-17T03:46:52.712Z,94.06
2023-01-17T03:47:52.712Z,94.07
2023-01-17T03:48:52.699Z,94.07
2023-01-17T03:49:52.760Z,94.07
2023-01-17T03:50:52.712Z,94.06
2023-01-17T03:51:52.712Z,94.07
2023-01-17T03:52:52.699Z,94.06
2023-01-17T03:53:52.713Z,94.07
2023-01-17T03:54:52.712Z,94.06
2023-01-17T03:55:52.712Z,94.06
2023-01-17T03:56:52.700Z,94.06
2023-01-17T03:57:52.713Z,94.07
2023-01-17T03:58:52.714Z,94.07
2023-01-17T03:59:52.712Z,94.07
2023-01-17T04:00:52.701Z,94.07
2023-01-17T04:01:52.712Z,94.07
2023-01-17T04:02:52.714Z,94.07
2023-01-17T04:03:52.700Z,94.07
2023-01-17T04:04:52.701Z,94.07
2023-01-17T04:05:52.714Z,94.07
2023-01-17T04:06:52.715Z,94.07
2023-01-17T04:07:52.699Z,94.07
2023-01-17T04:08:52.714Z,94.07
2023-01-17T04:09:52.714Z,94.07
2023-01-17T04:10:52.713Z,94.07
2023-01-17T04:11:52.701Z,94.07
2023-01-17T04:12:52.714Z,94.07
2023-01-17T04:13:52.714Z,94.06
2023-01-17T04:14:52.713Z,94.06
2023-01-17T04:15:52.702Z,94.06
2023-01-17T04:16:52.715Z,94.06
2023-01-17T04:17:52.715Z,94.06
2023-01-17T04:18:52.724Z,94.06
2023-01-17T04:19:52.702Z,94.07
2023-01-17T04:20:52.715Z,94.06
2023-01-17T04:21:52.716Z,94.06
2023-01-17T04:22:52.702Z,94.06
2023-01-17T04:23:52.703Z,94.06
2023-01-17T04:24:52.715Z,94.06
2023-01-17T04:25:52.714Z,94.06
2023-01-17T04:26:52.702Z,94.06
2023-01-17T04:27:52.716Z,94.06
2023-01-17T04:28:52.716Z,94.06
2023-01-17T04:29:52.715Z,94.06
2023-01-17T04:30:52.702Z,94.06
2023-01-17T04:31:52.715Z,94.06
2023-01-17T04:32:52.717Z,94.06
2023-01-17T04:33:52.716Z,94.06
2023-01-17T04:34:52.703Z,94.06
2023-01-17T04:35:52.779Z,94.06
2023-01-17T04:36:52.717Z,94.06
2023-01-17T04:37:52.703Z,94.06
2023-01-17T04:38:52.704Z,94.06
2023-01-17T04:39:52.716Z,94.06
2023-01-17T04:40:52.716Z,94.06
2023-01-17T04:41:52.703Z,94.06
2023-01-17T04:42:52.717Z,94.06
2023-01-17T04:43:52.716Z,94.06
2023-01-17T04:44:52.716Z,94.06
2023-01-17T04:45:52.704Z,94.06
2023-01-17T04:46:52.716Z,94.06
2023-01-17T04:47:52.761Z,94.06
2023-01-17T04:48:52.716Z,94.06
2023-01-17T04:49:52.705Z,94.05
2023-01-17T04:50:52.718Z,94.05
2023-01-17T04:51:52.718Z,94.06
2023-01-17T04:52:52.717Z,94.06
2023-01-17T04:53:52.705Z,94.06
2023-01-17T04:54:52.718Z,94.06
2023-01-17T04:55:52.718Z,94.06
2023-01-17T04:56:52.705Z,94.06
2023-01-17T04:57:52.705Z,94.07
2023-01-17T04:58:52.718Z,94.07
2023-01-17T04:59:52.759Z,94.07
2023-01-17T05:00:52.705Z,94.07
2023-01-17T05:01:52.719Z,94.07
2023-01-17T05:02:52.719Z,94.07
2023-01-17T05:03:52.719Z,94.07
2023-01-17T05:04:52.706Z,94.07
2023-01-17T05:05:52.719Z,94.07
2023-01-17T05:06:52.719Z,94.08
2023-01-17T05:07:52.718Z,94.07
2023-01-17T05:08:52.706Z,94.08
2023-01-17T05:09:52.719Z,94.07
2023-01-17T05:10:52.720Z,94.07
2023-01-17T05:11:52.704Z,94.07
2023-01-17T05:12:52.707Z,94.08
2023-01-17T05:13:52.720Z,94.08
2023-01-17T05:14:52.720Z,94.09
2023-01-17T05:15:52.706Z,94.09
2023-01-17T05:16:52.761Z,94.09
2023-01-17T05:17:52.720Z,94.09
2023-01-17T05:18:52.719Z,94.09
2023-01-17T05:19:52.707Z,94.1
2023-01-17T05:20:52.720Z,94.09
2023-01-17T05:21:52.720Z,94.09
2023-01-17T05:23:52.708Z,94.09
2023-01-17T05:24:52.720Z,94.1
2023-01-17T05:25:52.721Z,94.1
2023-01-17T05:26:52.720Z,94.1
2023-01-17T05:27:52.708Z,94.1
2023-01-17T05:28:52.721Z,94.1
2023-01-17T05:29:52.721Z,94.1
2023-01-17T05:30:52.708Z,94.1
2023-01-17T05:31:52.708Z,94.11
2023-01-17T05:32:52.721Z,94.11
2023-01-17T05:33:52.722Z,94.1
2023-01-17T05:34:52.708Z,94.1
2023-01-17T05:36:52.722Z,94.1
2023-01-17T05:37:52.721Z,94.1
2023-01-17T05:38:52.708Z,94.09
2023-01-17T05:39:52.722Z,94.1
2023-01-17T05:40:52.721Z,94.1
2023-01-17T05:41:52.722Z,94.1
2023-01-17T05:42:52.709Z,94.1
2023-01-17T05:43:52.722Z,94.1
2023-01-17T05:44:52.723Z,94.09
2023-01-17T05:45:52.722Z,94.09
2023-01-17T05:46:52.710Z,94.1
2023-01-17T05:47:52.722Z,94.1
2023-01-17T05:48:52.722Z,94.1
2023-01-17T05:49:52.709Z,94.1
2023-01-17T05:50:52.710Z,94.1
2023-01-17T05:51:52.723Z,94.1
2023-01-17T05:52:52.722Z,94.1
2023-01-17T05:53:52.710Z,94.1
2023-01-17T05:54:52.723Z,94.1
2023-01-17T05:56:52.722Z,94.11
2023-01-17T05:57:52.710Z,94.11
2023-01-17T05:58:52.723Z,94.1
2023-01-17T05:59:52.724Z,94.1
2023-01-17T06:00:52.722Z,94.1
2023-01-17T06:01:52.711Z,94.1
2023-01-17T06:02:52.724Z,94.1
2023-01-17T06:03:52.724Z,94.1
2023-01-17T06:04:52.710Z,94.1
2023-01-17T06:05:52.711Z,94.1
2023-01-17T06:06:52.724Z,94.1
2023-01-17T06:07:52.725Z,94.1
2023-01-17T06:08:52.711Z,94.1
2023-01-17T06:09:52.765Z,94.1
2023-01-17T06:10:52.724Z,94.1
2023-01-17T06:11:52.723Z,94.1
2023-01-17T06:12:52.711Z,94.1
2023-01-17T06:13:52.725Z,94.1
2023-01-17T06:14:52.725Z,94.1
2023-01-17T06:15:52.725Z,94.1
2023-01-17T06:16:52.712Z,94.1
2023-01-17T06:17:52.725Z,94.1
2023-01-17T06:18:52.725Z,94.1
2023-01-17T06:19:52.724Z,94.1
2023-01-17T06:20:52.712Z,94.11
2023-01-17T06:21:52.725Z,94.1
2023-01-17T06:22:52.725Z,94.1
2023-01-17T06:23:52.712Z,94.1
2023-01-17T06:24:52.712Z,94.1
2023-01-17T06:25:52.725Z,94.1
2023-01-17T06:26:52.749Z,94.1
2023-01-17T06:27:52.712Z,94.1
2023-01-17T06:28:52.726Z,94.11
2023-01-17T06:29:52.726Z,94.11
2023-01-17T06:30:52.726Z,94.11
2023-01-17T06:31:52.712Z,94.1
2023-01-17T06:32:52.726Z,94.1
2023-01-17T06:33:52.726Z,94.11
2023-01-17T06:34:52.725Z,94.1
2023-01-17T06:35:52.713Z,94.1
2023-01-17T06:36:52.726Z,94.09
2023-01-17T06:37:52.726Z,94.09
2023-01-17T06:38:52.713Z,94.09
2023-01-17T06:39:52.714Z,94.09
2023-01-17T06:40:52.727Z,94.09
2023-01-17T06:41:52.727Z,94.09
2023-01-17T06:42:52.713Z,94.09
2023-01-17T06:43:52.714Z,94.08
2023-01-17T06:44:52.726Z,94.08
2023-01-17T06:45:52.726Z,94.08
2023-01-17T06:46:52.714Z,94.08
2023-01-17T06:47:52.726Z,94.08
2023-01-17T06:48:52.727Z,94.09
2023-01-17T06:49:52.727Z,94.09
2023-01-17T06:50:52.714Z,94.09
2023-01-17T06:51:52.727Z,94.09
2023-01-17T06:52:52.727Z,94.09
2023-01-17T06:53:52.726Z,94.09
2023-01-17T06:54:52.715Z,94.08
2023-01-17T06:55:52.728Z,94.08
2023-01-17T06:56:52.728Z,94.08
2023-01-17T06:57:52.714Z,94.08
2023-01-17T06:58:52.715Z,94.08
2023-01-17T06:59:52.728Z,94.07
2023-01-17T07:00:52.729Z,94.07
2023-01-17T07:01:52.715Z,94.07
2023-01-17T07:02:52.770Z,94.07
2023-01-17T07:03:52.728Z,94.07
2023-01-17T07:04:52.728Z,94.06
2023-01-17T07:05:52.715Z,94.07
2023-01-17T07:06:52.728Z,94.06
2023-01-17T07:07:52.728Z,94.07
2023-01-17T07:08:52.728Z,94.07
2023-01-17T07:09:52.716Z,94.08
2023-01-17T07:10:52.728Z,94.07
2023-01-17T07:11:52.729Z,94.08
2023-01-17T07:12:52.729Z,94.08
2023-01-17T07:13:52.716Z,94.07
2023-01-17T07:14:52.729Z,94.08
2023-01-17T07:15:52.729Z,94.08
2023-01-17T07:16:52.715Z,94.08
2023-01-17T07:17:52.716Z,94.08
2023-01-17T07:18:52.729Z,94.08
2023-01-17T07:19:52.729Z,94.08
2023-01-17T07:20:52.716Z,94.09
2023-01-17T07:21:52.729Z,94.09
2023-01-17T07:22:52.728Z,94.09
2023-01-17T07:23:52.728Z,94.08
2023-01-17T07:24:52.716Z,94.09
2023-01-17T07:25:52.728Z,94.09
2023-01-17T07:26:52.772Z,94.09
2023-01-17T07:27:52.730Z,94.09
2023-01-17T07:28:52.717Z,94.09
2023-01-17T07:29:52.730Z,94.09
2023-01-17T07:30:52.730Z,94.09
2023-01-17T07:31:52.730Z,94.1
2023-01-17T07:32:52.716Z,94.09
2023-01-17T07:33:52.730Z,94.1
2023-01-17T07:34:52.730Z,94.09
2023-01-17T07:35:52.717Z,94.09
2023-01-17T07:36:52.717Z,94.09
2023-01-17T07:37:52.730Z,94.09
2023-01-17T07:38:52.771Z,94.09
2023-01-17T07:39:52.717Z,94.09
2023-01-17T07:40:52.730Z,94.08
2023-01-17T07:41:52.730Z,94.09
2023-01-17T07:42:52.729Z,94.09
2023-01-17T07:43:52.715Z,94.09
2023-01-17T07:44:52.731Z,94.09
2023-01-17T07:45:52.731Z,94.09
2023-01-17T07:46:52.730Z,94.09
2023-01-17T07:47:52.718Z,94.08
2023-01-17T07:48:52.731Z,94.08
2023-01-17T07:49:52.732Z,94.08
2023-01-17T07:50:52.718Z,94.08
2023-01-17T07:51:52.718Z,94.08
2023-01-17T07:52:52.731Z,94.08
2023-01-17T07:53:52.732Z,94.08
2023-01-17T07:54:52.716Z,94.07
2023-01-17T07:55:52.718Z,94.07
2023-01-17T07:56:52.730Z,94.06
2023-01-17T07:57:52.730Z,94.07
2023-01-17T07:58:52.718Z,94.07
2023-01-17T07:59:52.731Z,94.06
2023-01-17T08:00:52.732Z,94.06
2023-01-17T08:01:52.732Z,94.06
2023-01-17T08:02:52.717Z,94.07
2023-01-17T08:03:52.732Z,94.06
2023-01-17T08:04:52.733Z,94.06
2023-01-17T08:05:52.731Z,94.06
2023-01-17T08:06:52.719Z,94.06
2023-01-17T08:07:52.773Z,94.06
2023-01-17T08:08:52.732Z,94.06
2023-01-17T08:09:52.719Z,94.06
2023-01-17T08:10:52.719Z,94.06
2023-01-17T08:11:52.732Z,94.06
2023-01-17T08:12:52.732Z,94.06
2023-01-17T08:13:52.719Z,94.06
2023-01-17T08:14:52.732Z,94.06
2023-01-17T08:15:52.733Z,94.05
2023-01-17T08:16:52.733Z,94.06
2023-01-17T08:17:52.719Z,94.05
2023-01-17T08:18:52.733Z,94.05
2023-01-17T08:19:52.733Z,94.05
2023-01-17T08:20:52.732Z,94.05
2023-01-17T08:21:52.720Z,94.05
2023-01-17T08:22:52.733Z,94.05
2023-01-17T08:23:52.734Z,94.05
2023-01-17T08:24:52.718Z,94.05
2023-01-17T08:25:52.720Z,94.05
2023-01-17T08:26:52.732Z,94.04
2023-01-17T08:27:52.732Z,94.04
2023-01-17T08:28:52.720Z,94.04
2023-01-17T08:29:52.721Z,94.04
2023-01-17T08:30:52.733Z,94.03
2023-01-17T08:31:52.733Z,94.03
2023-01-17T08:32:52.720Z,94.03
2023-01-17T08:33:52.734Z,94.03
2023-01-17T08:34:52.734Z,94.03
2023-01-17T08:35:52.734Z,94.03
2023-01-17T08:36:52.721Z,94.03
2023-01-17T08:37:52.734Z,94.03
2023-01-17T08:38:52.735Z,94.03
2023-01-17T08:39:52.734Z,94.03
2023-01-17T08:40:52.721Z,94.03
2023-01-17T08:41:52.775Z,94.03
2023-01-17T08:42:52.734Z,94.03
2023-01-17T08:43:52.721Z,94.03
2023-01-17T08:44:52.722Z,94.03
2023-01-17T08:45:52.735Z,94.03
2023-01-17T08:46:52.735Z,94.03
2023-01-17T08:47:52.721Z,94.03
2023-01-17T08:48:52.735Z,94.03
2023-01-17T08:49:52.735Z,94.04
2023-01-17T08:50:52.735Z,94.04
2023-01-17T08:51:52.722Z,94.04
2023-01-17T08:53:52.736Z,94.04
2023-01-17T08:54:52.734Z,94.05
2023-01-17T08:55:52.723Z,94.05
2023-01-17T08:56:52.735Z,94.05
2023-01-17T08:57:52.736Z,94.06
2023-01-17T08:58:52.722Z,94.06
2023-01-17T08:59:52.723Z,94.06
2023-01-17T09:00:52.735Z,94.06
2023-01-17T09:01:52.737Z,94.06
2023-01-17T09:02:52.721Z,94.06
2023-01-17T09:03:52.723Z,94.06
2023-01-17T09:04:52.736Z,94.06
2023-01-17T09:05:52.736Z,94.06
2023-01-17T09:06:52.723Z,94.06
2023-01-17T09:07:52.736Z,94.06
2023-01-17T09:08:52.736Z,94.06
2023-01-17T09:09:52.737Z,94.06
2023-01-17T09:10:52.723Z,94.06
2023-01-17T09:11:52.737Z,94.06
2023-01-17T09:12:52.738Z,94.06
2023-01-17T09:13:52.736Z,94.06
2023-01-17T09:14:52.724Z,94.06
2023-01-17T09:15:52.737Z,94.06
2023-01-17T09:16:52.738Z,94.06
2023-01-17T09:17:52.722Z,94.06
2023-01-17T09:18:52.725Z,94.06
2023-01-17T09:20:52.739Z,94.05
2023-01-17T09:21:52.724Z,94.05
2023-01-17T09:22:52.779Z,94.05
2023-01-17T09:23:52.738Z,94.05
2023-01-17T09:24:52.738Z,94.05
2023-01-17T09:25:52.725Z,94.04
2023-01-17T09:26:52.737Z,94.04
2023-01-17T09:28:52.738Z,94.04
2023-01-17T09:29:52.726Z,94.04
2023-01-17T09:30:52.739Z,94.04
2023-01-17T09:31:52.739Z,94.04
2023-01-17T09:32:52.739Z,94.04
2023-01-17T09:33:52.726Z,94.04
2023-01-17T09:34:52.740Z,94.04
2023-01-17T09:35:52.739Z,94.04
2023-01-17T09:36:52.724Z,94.04
2023-01-17T09:37:52.725Z,94.04
2023-01-17T09:38:52.739Z,94.04
2023-01-17T09:39:52.803Z,94.04
2023-01-17T09:40:52.726Z,94.03
2023-01-17T09:41:52.740Z,94.03
2023-01-17T09:42:52.740Z,94.03
2023-01-17T09:43:52.740Z,94.04
2023-01-17T09:44:52.727Z,94.04
2023-01-17T09:45:52.740Z,94.04
2023-01-17T09:46:52.741Z,94.04
2023-01-17T09:47:52.740Z,94.04
2023-01-17T09:48:52.728Z,94.04
2023-01-17T09:49:52.741Z,94.04
2023-01-17T09:50:52.742Z,94.04
2023-01-17T09:51:52.727Z,94.04
2023-01-17T09:52:52.728Z,94.04
2023-01-17T09:54:52.741Z,94.04
2023-01-17T09:55:52.728Z,94.04
2023-01-17T09:56:52.729Z,94.04
2023-01-17T09:57:52.740Z,94.03
2023-01-17T09:58:52.741Z,94.03
2023-01-17T09:59:52.727Z,94.03
2023-01-17T10:00:52.742Z,94.03
2023-01-17T10:01:52.742Z,94.02
2023-01-17T10:02:52.742Z,94.02
2023-01-17T10:03:52.729Z,94.02
2023-01-17T10:04:52.742Z,94.02
2023-01-17T10:05:52.742Z,94.02
2023-01-17T10:06:52.741Z,94.01
2023-01-17T10:07:52.730Z,94.01
2023-01-17T10:08:52.743Z,94.01
2023-01-17T10:09:52.743Z,94.01
2023-01-17T10:10:52.729Z,94.01
2023-01-17T10:11:52.730Z,94.01
2023-01-17T10:12:52.742Z,94.01
2023-01-17T10:13:52.744Z,94.01
2023-01-17T10:14:52.730Z,94
2023-01-17T10:15:52.783Z,94
2023-01-17T10:16:52.743Z,94
2023-01-17T10:17:52.743Z,94
2023-01-17T10:18:52.730Z,94
2023-01-17T10:19:52.744Z,94
2023-01-17T10:20:52.743Z,93.99
2023-01-17T10:21:52.743Z,93.99
2023-01-17T10:22:52.731Z,93.99
2023-01-17T10:23:52.743Z,93.98
2023-01-17T10:24:52.744Z,93.97
2023-01-17T10:25:52.744Z,93.97
2023-01-17T10:26:52.732Z,93.97
2023-01-17T10:27:52.745Z,93.97
2023-01-17T10:28:52.746Z,93.96
2023-01-17T10:29:52.732Z,93.96
2023-01-17T10:30:52.732Z,93.96
2023-01-17T10:31:52.745Z,93.96
2023-01-17T10:32:52.745Z,93.96
2023-01-17T10:33:52.732Z,93.95
2023-01-17T10:34:52.746Z,93.95
2023-01-17T10:35:52.745Z,93.95
2023-01-17T10:36:52.746Z,93.95
2023-01-17T10:37:52.732Z,93.94
2023-01-17T10:38:52.745Z,93.95
2023-01-17T10:39:52.746Z,93.94
2023-01-17T10:40:52.746Z,93.94
2023-01-17T10:41:52.734Z,93.94
2023-01-17T10:42:52.747Z,93.94
2023-01-17T10:43:52.747Z,93.94
2023-01-17T10:44:52.747Z,93.94
2023-01-17T10:45:52.734Z,93.93
2023-01-17T10:46:52.747Z,93.93
2023-01-17T10:47:52.748Z,93.93
2023-01-17T10:48:52.734Z,93.93
2023-01-17T10:49:52.735Z,93.93
2023-01-17T10:50:52.746Z,93.93
2023-01-17T10:51:52.747Z,93.93
2023-01-17T10:52:52.734Z,93.93
2023-01-17T10:53:52.748Z,93.93
2023-01-17T10:54:52.748Z,93.93
2023-01-17T10:55:52.748Z,93.92
2023-01-17T10:56:52.733Z,93.93
2023-01-17T10:57:52.748Z,93.93
2023-01-17T10:58:52.749Z,93.93
2023-01-17T10:59:52.748Z,93.92
2023-01-17T11:00:52.736Z,93.93
2023-01-17T11:01:52.749Z,93.93
2023-01-17T11:02:52.750Z,93.92
2023-01-17T11:03:52.736Z,93.92
2023-01-17T11:04:52.736Z,93.92
2023-01-17T11:05:52.748Z,93.92
2023-01-17T11:06:52.749Z,93.92
2023-01-17T11:07:52.736Z,93.92
2023-01-17T11:08:52.791Z,93.92
2023-01-17T11:09:52.750Z,93.92
2023-01-17T11:10:52.749Z,93.91
2023-01-17T11:11:52.737Z,93.91
2023-01-17T11:12:52.749Z,93.91
2023-01-17T11:13:52.750Z,93.9
2023-01-17T11:14:52.749Z,93.9
2023-01-17T11:15:52.738Z,93.9
2023-01-17T11:16:52.751Z,93.9
2023-01-17T11:17:52.752Z,93.9
2023-01-17T11:18:52.750Z,93.9
2023-01-17T11:19:52.736Z,93.9
2023-01-17T11:20:52.750Z,93.89
2023-01-17T11:21:52.752Z,93.89
2023-01-17T11:22:52.738Z,93.89
2023-01-17T11:23:52.739Z,93.89
2023-01-17T11:24:52.752Z,93.88
2023-01-17T11:25:52.751Z,93.89
2023-01-17T11:26:52.737Z,93.88
2023-01-17T11:27:52.752Z,93.88
2023-01-17T11:28:52.752Z,93.88
2023-01-17T11:29:52.752Z,93.87
2023-01-17T11:30:52.739Z,93.87
2023-01-17T11:31:52.753Z,93.87
2023-01-17T11:32:52.754Z,93.87
2023-01-17T11:33:52.753Z,93.87
2023-01-17T11:34:52.739Z,93.87
2023-01-17T11:35:52.753Z,93.87
2023-01-17T11:36:52.754Z,93.87
2023-01-17T11:37:52.738Z,93.87
2023-01-17T11:38:52.741Z,93.87
2023-01-17T11:39:52.753Z,93.87
2023-01-17T11:40:52.755Z,93.87
2023-01-17T11:41:52.740Z,93.87
2023-01-17T11:42:52.741Z,93.88
2023-01-17T11:43:52.753Z,93.87
2023-01-17T11:44:52.754Z,93.87
2023-01-17T11:45:52.741Z,93.87
2023-01-17T11:46:52.754Z,93.86
2023-01-17T11:47:52.754Z,93.86
2023-01-17T11:48:52.755Z,93.86
2023-01-17T11:49:52.742Z,93.86
2023-01-17T11:50:52.755Z,93.86
2023-01-17T11:51:52.756Z,93.86
2023-01-17T11:52:52.755Z,93.86
2023-01-17T11:53:52.743Z,93.85
2023-01-17T11:54:52.820Z,93.85
2023-01-17T11:55:52.756Z,93.85
2023-01-17T11:56:52.743Z,93.85
2023-01-17T11:57:52.743Z,93.85
2023-01-17T11:58:52.755Z,93.85
2023-01-17T11:59:52.756Z,93.85
2023-01-17T12:00:52.743Z,93.84
2023-01-17T12:01:52.757Z,93.83
2023-01-17T12:02:52.757Z,93.81
2023-01-17T12:03:52.756Z,93.8
2023-01-17T12:04:52.744Z,93.8
2023-01-17T12:05:52.758Z,93.79
2023-01-17T12:06:52.802Z,93.78
2023-01-17T12:07:52.757Z,93.78
2023-01-17T12:08:52.745Z,93.78
2023-01-17T12:09:52.759Z,93.77
2023-01-17T12:10:52.759Z,93.78
2023-01-17T12:11:52.760Z,93.77
2023-01-17T12:12:52.747Z,93.77
2023-01-17T12:13:52.760Z,93.77
2023-01-17T12:14:52.761Z,93.77
2023-01-17T12:15:52.747Z,93.77
2023-01-17T12:16:52.747Z,93.77
2023-01-17T12:17:52.761Z,93.77
2023-01-17T12:18:52.803Z,93.77
2023-01-17T12:19:52.749Z,93.76
2023-01-17T12:20:52.762Z,93.77
2023-01-17T12:21:52.763Z,93.76
2023-01-17T12:22:52.763Z,93.76
2023-01-17T12:23:52.750Z,93.76
2023-01-17T12:24:52.764Z,93.76
2023-01-17T12:25:52.765Z,93.75
2023-01-17T12:26:52.765Z,93.75
2023-01-17T12:27:52.753Z,93.75
2023-01-17T12:28:52.766Z,93.75
2023-01-17T12:29:52.766Z,93.75
2023-01-17T12:30:52.753Z,93.75
2023-01-17T12:31:52.752Z,93.75
2023-01-17T12:32:52.767Z,93.75
2023-01-17T12:33:52.768Z,93.75
2023-01-17T12:34:52.755Z,93.74
2023-01-17T12:35:52.756Z,93.74
2023-01-17T12:36:52.769Z,93.75
2023-01-17T12:37:52.768Z,93.74
2023-01-17T12:38:52.757Z,93.74
2023-01-17T12:39:52.770Z,93.75
2023-01-17T12:40:52.771Z,93.75
2023-01-17T12:41:52.771Z,93.75
2023-01-17T12:42:52.758Z,93.76
2023-01-17T12:43:52.771Z,93.75
2023-01-17T12:44:52.773Z,93.76
2023-01-17T12:45:52.773Z,93.77
2023-01-17T12:46:52.760Z,93.77
2023-01-17T12:47:52.774Z,93.77
2023-01-17T12:48:52.774Z,93.77
2023-01-17T12:50:52.762Z,93.76
2023-01-17T12:54:00.995Z,93.76
2023-01-17T12:55:00.996Z,93.76
2023-01-17T12:56:10.270Z,93.76
2023-01-17T12:57:10.270Z,93.76
2023-01-17T12:58:02.021Z,93.76
2023-01-17T12:59:02.023Z,93.76
2023-01-17T12:59:52.778Z,93.76
2023-01-17T13:00:52.779Z,93.77
2023-01-17T13:01:52.765Z,93.77
2023-01-17T13:02:52.766Z,93.77
2023-01-17T13:03:52.779Z,93.76
2023-01-17T13:04:52.781Z,93.76
2023-01-17T13:05:52.767Z,93.75
2023-01-17T13:06:52.768Z,93.75